Tiempo atmosférico en la estación meteorológica de Madrid, El Goloso, Madrid (740 m.)



Fecha
DESCASC
Temp. máxima en grados centígrados (hora)
DESCASC
Temp. mínima en grados centígrados (hora)
DESCASC
Temp. media en grados centígrados
DESCASC
Racha de viento máxima en m/sg (hora)
DESCASC
Velocidad máxima media en intervalos de 10 minutos(hora)
DESCASC
Precipitaciones diarias en mm
DESCASC
Precipitaciones de 00:00 a 06:00 en mm
DESCASC
Precipitaciones de 06:00 a 12:00 en mm
DESCASC
Precipitaciones de 12:00 a 18:00 en mm
DESCASC
Precipitaciones de 18:00 a 24:00 en mm
DESCASC
16-06-2019 27.4 (17:30) 11.4 (07:10) 19.4 7.5 (17:10) 2.5 (13:00) 0 0 0 0 0
15-06-2019 24.2 (19:40) 8.4 (07:00) 16.3 6.11 (14:30) 2.5 (14:30) 0 0 0 0 0
14-06-2019 22.9 (15:10) 11 (06:30) 16.9 11.11 (17:20) 2.78 (17:20) 0 0 0 0 0
13-06-2019 26.3 (18:50) 10.8 (00:00) 18.5 8.89 (14:30) 3.33 (15:10) 0 0 0 0 0
12-06-2019 23 (19:20) 6.7 (00:00) 14.8 10 (17:40) 3.33 (17:20) 0 0 0 0 0
11-06-2019 19.6 (15:50) 9.3 (00:00) 14.5 9.44 (12:00) 4.44 (17:10) 0 0 0 0 0
10-06-2019 24.2 (18:30) 11.5 (00:00) 17.9 7.78 (19:00) 3.89 (16:20) 0 0 0 0 0
09-06-2019 25.4 (15:10) 11.3 (00:00) 18.3 8.61 (14:10) 3.06 (14:10) 0 0 0 0 0
08-06-2019 27.4 (17:30) 8.4 (00:00) 17.9 10 (17:40) 4.72 (17:30) 0 0 0 0 0
07-06-2019 19.9 (19:00) 8.7 (00:00) 14.3 10 (11:00) 2.78 (11:10) 0.4 0.4 0 0 0
06-06-2019 21.9 (18:50) 7.4 (00:00) 14.6 9.72 (18:20) 3.33 (15:50) 0 0 0 0 0
05-06-2019 19.7 (18:20) 11.3 (00:00) 15.5 10.28 (12:00) 4.72 (18:40) 0 0 0 0 0
04-06-2019 26.8 (14:30) 15.4 (00:00) 21.1 10 (15:20) 3.33 (14:30) 0 0 0 0 0
03-06-2019 31.1 (15:10) 16.8 (00:00) 23.9 9.44 (16:30) 2.78 (13:00) 0 0 0 0 0
02-06-2019 31.9 (17:50) 13.5 (00:00) 22.7 6.67 (14:40) 2.78 (14:50) 0 0 0 0 0
01-06-2019 30.9 (18:40) 12.8 (00:00) 21.8 6.11 (14:40) 2.78 (16:50) 0 0 0 0 0
31-05-2019 29.7 (18:50) 12.9 (00:00) 21.3 5.83 (02:10) 3.33 (02:20) 0 0 0 0 0
30-05-2019 28.8 (18:30) 9.7 (00:00) 19.2 6.67 (14:40) 2.78 (15:50) 0 0 0 0 0
29-05-2019 25.7 (18:50) 8 (00:00) 16.9 7.78 (17:10) 3.61 (17:30) 0 0 0 0 0
28-05-2019 24.6 (17:20) 10.2 (00:00) 17.4 10 (19:20) 5.28 (18:20) 0 0 0 0 0
27-05-2019 26.8 (14:50) 10.6 (00:00) 18.7 7.5 (17:20) 3.61 (16:30) 0 0 0 0 0
26-05-2019 25.6 (18:40) 7.3 (00:00) 16.5 8.06 (17:30) 4.17 (17:30) 0 0 0 0 0
25-05-2019 23.1 (18:40) 7.8 (00:00) 15.5 9.72 (14:30) 3.33 (14:30) 0 0 0 0 0
24-05-2019 22.9 (16:10) 13.9 (00:00) 18.4 9.72 (17:20) 5.28 (17:40) 0 0 0 0 0
23-05-2019 27 (18:30) 12.2 (00:00) 19.6 7.78 (14:40) 2.22 (14:20) 0 0 0 0 0
22-05-2019 26.1 (17:50) 10 (00:00) 18.1 6.94 (02:00) 2.22 (01:40) 0 0 0 0 0
21-05-2019 23.7 (15:10) 11.9 (03:20) 17.8 5.83 (09:10) 2.5 (06:00) 0 0 0 0 0

Gráficas

Temp. máximas Temp. mínimas Temp. medias Precipitaciones Rachas de viento máximas Velocidades máximas media en intervalos de 10 minutos

Datos horarios

Fecha y hora oficial Temperatura (ºC) Velocidad del viento (km/h) Dirección del viento Racha (km/h) Dirección de racha Precipitación (mm) Presión (hPa) Tendencia (hPa) Humedad (%)
2019-06-19 23:00:00 21.2 3 Oeste 13 Sur 0 -- -- 48
2019-06-19 22:00:00 22.5 3 Sudoeste 14 Sur 0 -- -- 44
2019-06-19 21:00:00 24.1 3 Sudoeste 14 Sudoeste 0 -- -- 40
2019-06-19 20:00:00 24.9 4 Sudoeste 21 Sur 0 -- -- 39
2019-06-19 19:00:00 25 5 Sudoeste 22 Sudoeste 0 -- -- 39
2019-06-19 18:00:00 24.8 8 Sudoeste 27 Sur 0 -- -- 38
2019-06-19 17:00:00 24.7 8 Sudoeste 24 Sudoeste 0 -- -- 39
2019-06-19 16:00:00 24.4 -- -- -- -- -- -- -- --
2019-06-19 15:00:00 -- -- -- -- -- -- -- -- --
2019-06-19 14:00:00 -- -- -- -- -- -- -- -- --
2019-06-19 13:00:00 23.1 -- -- -- -- 0 -- -- 44
2019-06-19 12:00:00 22 7 Sudoeste 26 Sudoeste 0 -- -- 48
2019-06-19 11:00:00 -- -- -- -- -- -- -- -- --
2019-06-19 10:00:00 -- -- -- -- -- -- -- -- --
2019-06-19 09:00:00 -- -- -- -- -- -- -- -- --
2019-06-19 08:00:00 -- -- -- -- -- -- -- -- --
2019-06-19 07:00:00 -- -- -- -- -- -- -- -- --
2019-06-19 06:00:00 16.1 -- -- -- -- -- -- -- --
2019-06-19 05:00:00 -- -- -- -- -- -- -- -- --
2019-06-19 04:00:00 17 3 Sudoeste 8 Sudoeste 0 -- -- 67
2019-06-19 03:00:00 16.5 0 Calma 4 Norte 0 -- -- 61
2019-06-19 02:00:00 17.9 -- -- -- -- 0 -- -- --
2019-06-19 01:00:00 18.2 0 Calma 4 Noroeste 0 -- -- 53
2019-06-19 00:00:00 19.1 0 Calma 5 Norte 0 -- -- 51
2019-06-18 23:00:00 20 2 Noroeste 10 Noroeste 0 -- -- 52
2019-06-18 22:00:00 19.4 4 Noroeste 14 Noroeste 0 -- -- 50
2019-06-18 21:00:00 24.9 4 Oeste 17 Noroeste 0 -- -- 35
2019-06-18 20:00:00 26.5 4 Oeste 27 Sur 0 -- -- 25
2019-06-18 19:00:00 27.3 4 Oeste 24 Sur 0 -- -- 17
2019-06-18 18:00:00 27.8 6 Sudoeste 26 Oeste 0 -- -- 13
2019-06-18 17:00:00 28 6 Sudoeste 37 Sudoeste 0 -- -- 12
2019-06-18 16:00:00 28.3 9 Sudoeste 26 Sur 0 -- -- 12
2019-06-18 15:00:00 27.7 8 Sudoeste 30 Sur 0 -- -- 14
2019-06-18 14:00:00 26.5 6 Oeste 31 Sur 0 -- -- 15
2019-06-18 13:00:00 26.3 7 Sudoeste 41 Sur 0 -- -- 15
2019-06-18 12:00:00 25.1 6 Sudoeste 26 Sudoeste 0 -- -- 20
2019-06-18 11:00:00 24.5 7 Sudoeste 21 Sur 0 -- -- 23
2019-06-18 10:00:00 22.9 5 Sudoeste 15 Sudoeste 0 -- -- 27
2019-06-18 09:00:00 21.4 3 Sudoeste 10 Sudoeste 0 -- -- 28
2019-06-18 08:00:00 18.7 0 Calma 6 Sudoeste 0 -- -- 32
2019-06-18 07:00:00 16.3 0 Calma 2 Sur 0 -- -- 37
2019-06-18 06:00:00 18.7 0 Calma 8 Oeste 0 -- -- 32
2019-06-18 05:00:00 18.3 0 Calma 3 Sur 0 -- -- 36
2019-06-18 04:00:00 20.3 0 Calma 14 Sur 0 -- -- 34
2019-06-18 03:00:00 21.6 4 Este 9 Nordeste 0 -- -- 28
2019-06-18 02:00:00 21.7 2 Sudoeste 5 Sudoeste 0 -- -- 28
2019-06-18 01:00:00 21.9 0 Calma 3 Noroeste 0 -- -- 29
2019-06-18 00:00:00 22.6 0 Calma 4 Noroeste 0 -- -- 29
2019-06-17 23:00:00 24.7 0 Calma 4 Noroeste 0 -- -- 24
2019-06-17 22:00:00 26.1 0 Calma 7 Noroeste 0 -- -- 22
2019-06-17 21:00:00 27.8 2 Oeste 22 Sudoeste 0 -- -- 21
2019-06-17 20:00:00 28.9 2 Oeste 27 Sur 0 -- -- 19
2019-06-17 19:00:00 28.8 4 Sudoeste 21 Sur 0 -- -- 19
2019-06-17 18:00:00 29 5 Sur 26 Sur 0 -- -- 18
2019-06-17 17:00:00 28.6 6 Sudoeste 25 Sur 0 -- -- 18
2019-06-17 16:00:00 28.7 9 Sur 27 Sur 0 -- -- 18
2019-06-17 15:00:00 28.6 7 Sur 29 Sur 0 -- -- 20
2019-06-17 14:00:00 28.2 12 Sur 24 Sur 0 -- -- 21
2019-06-17 13:00:00 27.1 7 Sur 22 Sur 0 -- -- 24
2019-06-17 12:00:00 25.9 4 Sudeste 11 Sudeste 0 -- -- 30
2019-06-17 11:00:00 24.3 5 Sudeste 13 Sudeste 0 -- -- 36
2019-06-17 10:00:00 22.2 5 Este 14 Este 0 -- -- 39
2019-06-17 09:00:00 18.9 5 Sudeste 9 Sudeste 0 -- -- 38
2019-06-17 08:00:00 15.2 2 Sudeste 5 Sudeste 0 -- -- 44
2019-06-17 07:00:00 11.7 2 Este 4 Sudeste 0 -- -- 53
2019-06-17 06:00:00 11.9 0 Calma 3 Sudeste 0 -- -- 54
2019-06-17 05:00:00 13.1 0 Calma 4 Nordeste 0 -- -- 50
2019-06-17 04:00:00 14.1 2 Norte 6 Norte 0 -- -- 44
2019-06-17 03:00:00 15.2 0 Calma 4 Norte 0 -- -- 40
2019-06-17 02:00:00 15.9 0 Calma 9 Sudeste 0 -- -- 37
2019-06-17 01:00:00 16.8 2 Noroeste 4 Noroeste 0 -- -- 35
2019-06-17 00:00:00 18.8 0 Calma 8 Noroeste 0 -- -- 31
2019-06-16 23:00:00 22.1 5 Noroeste 8 Noroeste 0 -- -- 24
2019-06-16 22:00:00 21.2 3 Noroeste 5 Noroeste 0 -- -- 26
2019-06-16 21:00:00 24.8 3 Noroeste 6 Noroeste 0 -- -- 21
2019-06-16 20:00:00 25.9 2 Sudoeste 13 Sudoeste 0 -- -- 21
2019-06-16 19:00:00 27 4 Sudoeste 18 Sur 0 -- -- 19
2019-06-16 18:00:00 27.4 4 Sudoeste 27 Sur 0 -- -- 19
2019-06-16 17:00:00 27.3 7 Sur 20 Sur 0 -- -- 20
2019-06-16 16:00:00 26.5 4 Sudoeste 23 Sur 0 -- -- 21
2019-06-16 15:00:00 26.5 5 Sur 21 Sudeste 0 -- -- 22
2019-06-16 14:00:00 26 8 Sur 25 Sudoeste 0 -- -- 24
2019-06-16 13:00:00 25.3 9 Sur 18 Sur 0 -- -- 24
2019-06-16 12:00:00 23.9 4 Este 13 Sudeste 0 -- -- 26
2019-06-16 11:00:00 22.3 6 Sudeste 13 Sudeste 0 -- -- 30
2019-06-16 10:00:00 20 5 Este 13 Sudeste 0 -- -- 38
2019-06-16 09:00:00 17.2 6 Este 17 Nordeste 0 -- -- 45
2019-06-16 08:00:00 12.4 4 Este 8 Este 0 -- -- 55
2019-06-16 07:00:00 11.5 3 Este 9 Nordeste 0 -- -- 57
2019-06-16 06:00:00 12.4 5 Nordeste 10 Nordeste 0 -- -- 54
2019-06-16 05:00:00 12.9 5 Este 15 Nordeste 0 -- -- 50
2019-06-16 04:00:00 12.6 3 Este 10 Nordeste 0 -- -- 46
2019-06-16 03:00:00 14.3 3 Este 10 Norte 0 -- -- 40
2019-06-16 02:00:00 17 8 Norte 12 Norte 0 -- -- 36
2019-06-16 01:00:00 16.4 6 Noroeste 8 Noroeste 0 -- -- 35
2019-06-16 00:00:00 16.7 0 Calma 6 Sudoeste 0 -- -- 34
2019-06-15 23:00:00 18.5 0 Calma 6 Sudoeste 0 -- -- 31
2019-06-15 22:00:00 20.9 0 Calma 12 Sur 0 -- -- 29
2019-06-15 21:00:00 23.1 8 Sur 17 Sur 0 -- -- 26
2019-06-15 20:00:00 23.7 6 Sudoeste 17 Sudoeste 0 -- -- 25
2019-06-15 19:00:00 23.9 6 Sudoeste 18 Sur 0 -- -- 25
2019-06-15 18:00:00 23.6 6 Sur 20 Sur 0 -- -- 25
2019-06-15 17:00:00 23.4 3 Sudoeste 19 Sur 0 -- -- 26
2019-06-15 16:00:00 22.7 7 Sur 21 Sudoeste 0 -- -- 27
2019-06-15 15:00:00 22.9 7 Sudeste 22 Sur 0 -- -- 28
2019-06-15 14:00:00 21.4 6 Sur 18 Sur 0 -- -- 30
2019-06-15 13:00:00 20.6 6 Sudeste 15 Sudeste 0 -- -- 31
2019-06-15 12:00:00 19.1 7 Sur 15 Sur 0 -- -- 34
2019-06-15 11:00:00 18.1 5 Nordeste 12 Este 0 -- -- 38
2019-06-15 10:00:00 17.1 4 Este 14 Sudeste 0 -- -- 43
2019-06-15 09:00:00 14.3 5 Sudeste 11 Este 0 -- -- 50
2019-06-15 08:00:00 10.3 0 Calma 6 Norte 0 -- -- 59
2019-06-15 07:00:00 8.4 0 Calma 5 Este 0 -- -- 63
2019-06-15 06:00:00 9.2 0 Calma 4 Sudoeste 0 -- -- 63
2019-06-15 05:00:00 11 0 Calma 5 Sur 0 -- -- 58
2019-06-15 04:00:00 11.8 0 Calma 9 Sudoeste 0 -- -- 54
2019-06-15 03:00:00 13.1 2 Sudoeste 8 Sudoeste 0 -- -- 49
2019-06-15 02:00:00 14.3 0 Calma 13 Sudoeste 0 -- -- 45
2019-06-15 01:00:00 15 3 Sudoeste 12 Sur 0 -- -- 43
2019-06-15 00:00:00 15.8 0 Calma 14 Sur 0 -- -- 40
2019-06-14 23:00:00 17 0 Calma 14 Sudoeste 0 -- -- 37
2019-06-14 22:00:00 18.1 3 Oeste 23 Oeste 0 -- -- 35
2019-06-14 21:00:00 19.9 5 Oeste 22 Sudoeste 0 -- -- 29
2019-06-14 20:00:00 21.2 5 Sudoeste 24 Sur 0 -- -- 25
2019-06-14 19:00:00 22 6 Sudoeste 25 Sudoeste 0 -- -- 24
2019-06-14 18:00:00 22.4 6 Sudoeste 40 Sur 0 -- -- 25
2019-06-14 17:00:00 22.5 9 Sudoeste 33 Sur 0 -- -- 25
2019-06-14 16:00:00 22.5 8 Sudoeste 31 Sudoeste 0 -- -- 26
2019-06-14 15:00:00 22.4 6 Oeste 31 Sudoeste 0 -- -- 27
2019-06-14 14:00:00 22.3 8 Sudoeste 39 Sudoeste 0 -- -- 26
2019-06-14 13:00:00 21.2 5 Oeste 21 Sur 0 -- -- 31
2019-06-14 12:00:00 20.5 5 Oeste 28 Sudoeste 0 -- -- 33
2019-06-14 11:00:00 20.1 5 Oeste 29 Sudoeste 0 -- -- 35
2019-06-14 10:00:00 18.8 4 Oeste 17 Sudoeste 0 -- -- 35
2019-06-14 09:00:00 16 2 Oeste 8 Noroeste 0 -- -- 40
2019-06-14 08:00:00 14.3 0 Calma 7 Sudoeste 0 -- -- 41
2019-06-14 07:00:00 12.1 0 Calma 4 Sur 0 -- -- 40
2019-06-14 06:00:00 11.6 0 Calma 3 Sur 0 -- -- 40
2019-06-14 05:00:00 13.2 0 Calma 2 Sur 0 -- -- 36
2019-06-14 04:00:00 14.3 0 Calma 6 Este 0 -- -- 36
2019-06-14 03:00:00 17.2 0 Calma 7 Sudoeste 0 -- -- 32
2019-06-14 02:00:00 19.5 0 Calma 14 Sur 0 -- -- 28
2019-06-14 01:00:00 19.3 7 Sur 20 Sur 0 -- -- 28
2019-06-14 00:00:00 19.2 4 Norte 16 Noroeste 0 -- -- 25
2019-06-13 23:00:00 19.5 6 Noroeste 10 Noroeste 0 -- -- 28
2019-06-13 22:00:00 21.2 3 Noroeste 16 Noroeste 0 -- -- 27
2019-06-13 21:00:00 23.4 3 Oeste 20 Sur 0 -- -- 24
2019-06-13 20:00:00 24.8 3 Oeste 28 Sur 0 -- -- 24
2019-06-13 19:00:00 26.2 10 Sudoeste 28 Sur 0 -- -- 19
2019-06-13 18:00:00 25.9 7 Sudoeste 22 Sudoeste 0 -- -- 21
2019-06-13 17:00:00 25.8 8 Sur 26 Sur 0 -- -- 23
2019-06-13 16:00:00 24.6 4 Oeste 24 Sur 0 -- -- 25
2019-06-13 15:00:00 24.8 8 Sudoeste 32 Sur 0 -- -- 25
2019-06-13 14:00:00 23.7 4 Sudoeste 27 Sur 0 -- -- 32
2019-06-13 13:00:00 22.4 4 Sur 19 Sur 0 -- -- 36
2019-06-13 12:00:00 20.7 5 Nordeste 15 Sudeste 0 -- -- 46
2019-06-13 11:00:00 19.3 6 Sudeste 17 Sur 0 -- -- 52
2019-06-13 10:00:00 17.3 7 Sudeste 16 Sudeste 0 -- -- 61
2019-06-13 09:00:00 15 5 Este 12 Nordeste 0 -- -- 66
2019-06-13 08:00:00 12.7 2 Nordeste 9 Nordeste 0 -- -- 71
2019-06-13 07:00:00 11.1 2 Este 5 Nordeste 0 -- -- 74
2019-06-13 06:00:00 10.8 2 Este 6 Este 0 -- -- 75
2019-06-13 05:00:00 11.9 2 Este 6 Este 0 -- -- 67
2019-06-13 04:00:00 13.3 4 Sudeste 10 Sur 0 -- -- 64
2019-06-13 03:00:00 14.8 4 Sudeste 19 Sudeste 0 -- -- 60
2019-06-13 02:00:00 13.7 9 Sudeste 15 Sudeste 0 -- -- 46
2019-06-13 01:00:00 12.7 0 Calma 0 Calma 0 -- -- 33
2019-06-13 00:00:00 13.4 0 Calma 0 Calma 0 -- -- 32
2019-06-12 23:00:00 14.8 0 Calma 3 Sudoeste 0 -- -- 30
2019-06-12 22:00:00 19.6 0 Calma 8 Sudoeste 0 -- -- 23
2019-06-12 21:00:00 22.3 3 Oeste 15 Sur 0 -- -- 20
2019-06-12 20:00:00 22.8 5 Oeste 19 Sur 0 -- -- 18
2019-06-12 19:00:00 22.9 5 Sudoeste 26 Sur 0 -- -- 17
2019-06-12 18:00:00 22.8 3 Oeste 36 Sudoeste 0 -- -- 21
2019-06-12 17:00:00 21.8 5 Sudeste 24 Sur 0 -- -- 20
2019-06-12 16:00:00 21.6 7 Sur 33 Sudoeste 0 -- -- 21
2019-06-12 15:00:00 20.5 5 Sudoeste 21 Noroeste 0 -- -- 24
2019-06-12 14:00:00 20.3 5 Sudeste 32 Sur 0 -- -- 26
2019-06-12 13:00:00 20 7 Sudeste 22 Sur 0 -- -- 30
2019-06-12 12:00:00 17.6 5 Sudoeste 20 Sur 0 -- -- 37
2019-06-12 11:00:00 16.3 5 Sudeste 13 Sudeste 0 -- -- 41
2019-06-12 10:00:00 14.4 4 Sudeste 11 Sudeste 0 -- -- 46
2019-06-12 09:00:00 11.6 5 Este 10 Este 0 -- -- 53
2019-06-12 08:00:00 8.2 3 Sudeste 6 Sudeste 0 -- -- 60
2019-06-12 07:00:00 7.2 3 Sudeste 10 Nordeste 0 -- -- 62
2019-06-12 06:00:00 6.7 0 Calma 6 Este 0 -- -- 62
2019-06-12 05:00:00 7.5 2 Este 6 Nordeste 0 -- -- 59
2019-06-12 04:00:00 8.1 2 Este 7 Nordeste 0 -- -- 54
2019-06-12 03:00:00 8.7 0 Calma 10 Nordeste 0 -- -- 52
2019-06-12 02:00:00 10 3 Nordeste 6 Nordeste 0 -- -- 46
2019-06-12 01:00:00 10.6 3 Nordeste 7 Nordeste 0 -- -- 50
2019-06-12 00:00:00 9.9 3 Sudeste 9 Nordeste 0 -- -- 54
2019-06-11 23:00:00 10.5 5 Nordeste 10 Nordeste 0 -- -- 53
2019-06-11 22:00:00 10.8 5 Nordeste 18 Nordeste 0 -- -- 67
2019-06-11 21:00:00 17.5 9 Norte 30 Nordeste 0 -- -- 26
2019-06-11 20:00:00 18.3 12 Norte 28 Norte 0 -- -- 26
2019-06-11 19:00:00 18.8 13 Norte 29 Noroeste 0 -- -- 26
2019-06-11 18:00:00 18.9 15 Norte 31 Norte 0 -- -- 23
2019-06-11 17:00:00 19.1 13 Norte 26 Noroeste 0 -- -- 25
2019-06-11 16:00:00 19 9 Este 24 Sudeste 0 -- -- 28
2019-06-11 15:00:00 17.1 8 Nordeste 29 Nordeste 0 -- -- 33
2019-06-11 14:00:00 17.1 12 Nordeste 30 Nordeste 0 -- -- 36
2019-06-11 13:00:00 17 9 Este 34 Este 0 -- -- 41
2019-06-11 12:00:00 15.3 16 Nordeste 34 Nordeste 0 -- -- 46
2019-06-11 11:00:00 15.7 11 Este 28 Nordeste 0 -- -- 45
2019-06-11 10:00:00 17.9 10 Este 27 Este 0 -- -- 43
2019-06-11 09:00:00 16.3 3 Sudeste 8 Sudeste 0 -- -- 44
2019-06-11 08:00:00 15.3 4 Sudeste 14 Sudeste 0 -- -- 48
2019-06-11 07:00:00 15.2 7 Sudeste 21 Sudeste 0 -- -- 45
2019-06-11 06:00:00 15.8 5 Sudeste 14 Sudeste 0 -- -- 42
2019-06-11 05:00:00 16.7 2 Oeste 8 Sudoeste 0 -- -- 41
2019-06-11 04:00:00 15.7 0 Calma 9 Norte 0 -- -- 40
2019-06-11 03:00:00 16.7 4 Norte 15 Norte 0 -- -- 36
2019-06-11 02:00:00 16.6 0 Calma 13 Nordeste 0 -- -- 31
2019-06-11 01:00:00 18.4 8 Norte 17 Noroeste 0 -- -- 28
2019-06-11 00:00:00 18.4 5 Noroeste 14 Noroeste 0 -- -- 29
2019-06-10 23:00:00 18.8 4 Noroeste 14 Noroeste 0 -- -- 26
2019-06-10 22:00:00 19.8 5 Noroeste 21 Noroeste 0 -- -- 24
2019-06-10 21:00:00 22.3 6 Noroeste 23 Noroeste 0 -- -- 20
2019-06-10 20:00:00 23.5 8 Noroeste 28 Norte 0 -- -- 19
2019-06-10 19:00:00 23.9 10 Noroeste 28 Noroeste 0 -- -- 20
2019-06-10 18:00:00 23.8 4 Oeste 23 Noroeste 0 -- -- 20
2019-06-10 17:00:00 23.8 3 Oeste 27 Norte 0 -- -- 18
2019-06-10 16:00:00 23.6 4 Noroeste 15 Norte 0 -- -- 23
2019-06-10 15:00:00 23.2 8 Sur 18 Sudoeste 0 -- -- 27
2019-06-10 14:00:00 23.2 4 Sudeste 16 Sudoeste 0 -- -- 31
2019-06-10 13:00:00 21.7 3 Norte 15 Sur 0 -- -- 33
2019-06-10 12:00:00 21.3 8 Sur 18 Sudoeste 0 -- -- 40
2019-06-10 11:00:00 19.4 4 Sudoeste 11 Sur 0 -- -- 43
2019-06-10 10:00:00 18.6 3 Sur 8 Sur 0 -- -- 48
2019-06-10 09:00:00 15.9 3 Este 12 Sudeste 0 -- -- 57
2019-06-10 08:00:00 13.4 4 Sudeste 8 Sudeste 0 -- -- 66
2019-06-10 07:00:00 11.5 3 Sudeste 6 Sudeste 0 -- -- 66
2019-06-10 06:00:00 13.9 5 Sudeste 9 Sudeste 0 -- -- 53
2019-06-10 05:00:00 14.5 4 Sur 13 Sudeste 0 -- -- 48
2019-06-10 04:00:00 14.4 6 Sudeste 12 Sudeste 0 -- -- 46
2019-06-10 03:00:00 14.4 2 Sur 6 Noroeste 0 -- -- 46
2019-06-10 02:00:00 16.3 4 Noroeste 9 Noroeste 0 -- -- 41
2019-06-10 01:00:00 17.2 3 Norte 14 Noroeste 0 -- -- 38
2019-06-10 00:00:00 18.4 4 Noroeste 21 Noroeste 0 -- -- 35
2019-06-09 23:00:00 20 7 Noroeste 21 Noroeste 0 -- -- 31
2019-06-09 22:00:00 21.5 6 Noroeste 19 Noroeste 0 -- -- 28
2019-06-09 21:00:00 22.9 3 Oeste 19 Sur 0 -- -- 26
2019-06-09 20:00:00 23.7 4 Sudoeste 27 Sur 0 -- -- 22
2019-06-09 19:00:00 25.1 7 Sudoeste 17 Sudoeste 0 -- -- 20
2019-06-09 18:00:00 25.1 4 Oeste 22 Sur 0 -- -- 18
2019-06-09 17:00:00 24.7 5 Sudoeste 24 Sudoeste 0 -- -- 18
2019-06-09 16:00:00 24.8 7 Sudoeste 22 Sur 0 -- -- 19
2019-06-09 15:00:00 24.8 5 Sudoeste 31 Sur 0 -- -- 21
2019-06-09 14:00:00 24.3 6 Sudoeste 26 Sur 0 -- -- 21
2019-06-09 13:00:00 23.3 7 Sudoeste 30 Sur 0 -- -- 23
2019-06-09 12:00:00 22 5 Sudoeste 24 Sur 0 -- -- 30
2019-06-09 11:00:00 21.1 4 Sudoeste 12 Sudoeste 0 -- -- 35
2019-06-09 10:00:00 19.4 2 Nordeste 7 Sudeste 0 -- -- 50
2019-06-09 09:00:00 17 2 Este 6 Norte 0 -- -- 57
2019-06-09 08:00:00 13.7 0 Calma 2 Norte 0 -- -- 72
2019-06-09 07:00:00 11.4 0 Calma 3 Sudeste 0 -- -- 77
2019-06-09 06:00:00 12 0 Calma 5 Sur 0 -- -- 75
2019-06-09 05:00:00 12.2 2 Sudoeste 4 Sudoeste 0 -- -- 73
2019-06-09 04:00:00 14 0 Calma 5 Sudoeste 0 -- -- 68
2019-06-09 03:00:00 16 0 Calma 7 Sur 0 -- -- 62
2019-06-09 02:00:00 18 0 Calma 17 Sur 0 -- -- 56
2019-06-09 01:00:00 19.2 11 Sur 23 Sur 0 -- -- 53
2019-06-09 00:00:00 20.5 6 Sudeste 20 Sudeste 0 -- -- 49
2019-06-08 23:00:00 18.8 0 Calma 5 Sudeste 0 -- -- 28
2019-06-08 22:00:00 22.5 0 Calma 10 Oeste 0 -- -- 23
2019-06-08 21:00:00 24.6 3 Sudoeste 16 Sur 0 -- -- 19
2019-06-08 20:00:00 25.8 5 Sudoeste 19 Sur 0 -- -- 18
2019-06-08 19:00:00 26.6 5 Sudoeste 18 Sudoeste 0 -- -- 17
2019-06-08 18:00:00 26.9 7 Sudoeste 36 Sur 0 -- -- 23
2019-06-08 17:00:00 26.6 10 Sudeste 33 Sur 0 -- -- 31
2019-06-08 16:00:00 26.1 9 Sur 26 Sur 0 -- -- 31
2019-06-08 15:00:00 25.1 11 Sur 31 Sur 0 -- -- 33
2019-06-08 14:00:00 25.1 13 Sur 29 Sur 0 -- -- 36
2019-06-08 13:00:00 24.2 6 Este 21 Sudeste 0 -- -- 33
2019-06-08 12:00:00 22.5 6 Sudeste 22 Sudeste 0 -- -- 32
2019-06-08 11:00:00 20.6 6 Este 19 Sudeste 0 -- -- 33
2019-06-08 10:00:00 18.2 4 Este 17 Este 0 -- -- 33
2019-06-08 09:00:00 15.6 5 Este 18 Este 0 -- -- 37
2019-06-08 08:00:00 11.1 5 Este 13 Este 0 -- -- 47
2019-06-08 07:00:00 8.5 2 Este 5 Este 0 -- -- 53
2019-06-08 06:00:00 9.2 3 Este 10 Nordeste 0 -- -- 50
2019-06-08 05:00:00 9.5 4 Nordeste 10 Este 0 -- -- 50
2019-06-08 04:00:00 9.9 3 Nordeste 11 Nordeste 0 -- -- 49
2019-06-08 03:00:00 11.3 5 Este 15 Este 0 -- -- 43
2019-06-08 02:00:00 11 5 Nordeste 9 Este 0 -- -- 45
2019-06-08 01:00:00 10.4 0 Calma 4 Sudeste 0 -- -- 49
2019-06-08 00:00:00 12.2 0 Calma 7 Nordeste 0 -- -- 42
2019-06-07 23:00:00 14.9 4 Nordeste 8 Este 0 -- -- 36
2019-06-07 22:00:00 16.8 4 Norte 10 Noroeste 0 -- -- 32
2019-06-07 21:00:00 19 4 Noroeste 15 Noroeste 0 -- -- 29
2019-06-07 20:00:00 19.6 3 Oeste 28 Noroeste 0 -- -- 29
2019-06-07 19:00:00 19.9 4 Oeste 26 Noroeste 0 -- -- 26
2019-06-07 18:00:00 19.5 5 Oeste 19 Noroeste 0 -- -- 25
2019-06-07 17:00:00 19.1 4 Oeste 22 Oeste 0 -- -- 28
2019-06-07 16:00:00 18.6 5 Oeste 23 Noroeste 0 -- -- 30
2019-06-07 15:00:00 18.1 4 Oeste 19 Sur 0 -- -- 31
2019-06-07 14:00:00 17.2 4 Oeste 21 Oeste 0 -- -- 34
2019-06-07 13:00:00 16.3 4 Oeste 21 Norte 0 -- -- 37
2019-06-07 12:00:00 15.1 5 Oeste 25 Noroeste 0 -- -- 40
2019-06-07 11:00:00 14.8 8 Noroeste 36 Noroeste 0 -- -- 41
2019-06-07 10:00:00 13.2 10 Noroeste 24 Noroeste 0 -- -- 45
2019-06-07 09:00:00 11.4 4 Oeste 20 Noroeste 0 -- -- 55
2019-06-07 08:00:00 9.4 3 Oeste 12 Noroeste 0 -- -- 63
2019-06-07 07:00:00 8.7 2 Oeste 10 Noroeste 0 -- -- 66
2019-06-07 06:00:00 9.2 2 Oeste 9 Noroeste 0 -- -- 71
2019-06-07 05:00:00 10.2 4 Noroeste 19 Noroeste 0.4 -- -- 84
2019-06-07 04:00:00 13.2 3 Oeste 22 Sudoeste 0 -- -- 84
2019-06-07 03:00:00 13.1 5 Sudoeste 18 Sudoeste 0 -- -- 83
2019-06-07 02:00:00 14.2 4 Oeste 28 Sur 0 -- -- 75
2019-06-07 01:00:00 15.7 4 Oeste 14 Oeste 0 -- -- 58
2019-06-07 00:00:00 17.1 3 Sudoeste 11 Sudoeste 0 -- -- 37
2019-06-06 23:00:00 17.6 2 Oeste 14 Sur 0 -- -- 34
2019-06-06 22:00:00 18.8 5 Sudoeste 27 Sudoeste 0 -- -- 31
2019-06-06 21:00:00 20.2 5 Sudoeste 34 Sudoeste 0 -- -- 27
2019-06-06 20:00:00 21.3 8 Sudoeste 34 Sur 0 -- -- 25
2019-06-06 19:00:00 21.8 8 Sudoeste 35 Sudoeste 0 -- -- 23
2019-06-06 18:00:00 21.5 8 Sudoeste 31 Sudoeste 0 -- -- 21
2019-06-06 17:00:00 21.3 8 Sudoeste 33 Sudoeste 0 -- -- 21
2019-06-06 16:00:00 21.3 9 Sudoeste 30 Sur 0 -- -- 20
2019-06-06 15:00:00 20.3 7 Oeste 30 Sur 0 -- -- 21
2019-06-06 14:00:00 19.4 9 Sudoeste 30 Sudoeste 0 -- -- 22
2019-06-06 13:00:00 18.9 12 Sur 30 Sur 0 -- -- 27
2019-06-06 12:00:00 18 6 Sur 20 Sudoeste 0 -- -- 34
2019-06-06 11:00:00 16.4 3 Oeste 14 Sur 0 -- -- 38
2019-06-06 10:00:00 15.2 3 Sudoeste 12 Sur 0 -- -- 44
2019-06-06 09:00:00 12.8 3 Sudoeste 8 Sudoeste 0 -- -- 49
2019-06-06 08:00:00 9.5 2 Sudeste 5 Sudeste 0 -- -- 56
2019-06-06 07:00:00 7.4 0 Calma 5 Sur 0 -- -- 66
2019-06-06 06:00:00 8.1 0 Calma 4 Sudoeste 0 -- -- 62
2019-06-06 05:00:00 10.3 0 Calma 4 Sur 0 -- -- 55
2019-06-06 04:00:00 9.4 0 Calma 2 Sudoeste 0 -- -- 57
2019-06-06 03:00:00 9.8 0 Calma 3 Sudoeste 0 -- -- 54
2019-06-06 02:00:00 10.6 0 Calma 0 Calma 0 -- -- 51
2019-06-06 01:00:00 13 0 Calma 2 Sur 0 -- -- 44
2019-06-06 00:00:00 13.1 0 Calma 9 Noroeste 0 -- -- 40
2019-06-05 23:00:00 14 3 Noroeste 9 Noroeste 0 -- -- 38
2019-06-05 22:00:00 16.1 4 Noroeste 18 Noroeste 0 -- -- 32
2019-06-05 21:00:00 17.8 10 Noroeste 23 Noroeste 0 -- -- 29
2019-06-05 20:00:00 18.6 9 Noroeste 25 Noroeste 0 -- -- 28
2019-06-05 19:00:00 19.5 14 Noroeste 31 Noroeste 0 -- -- 25
2019-06-05 18:00:00 19.5 13 Noroeste 37 Noroeste 0 -- -- 26
2019-06-05 17:00:00 19.2 8 Noroeste 36 Noroeste 0 -- -- 27
2019-06-05 16:00:00 18.3 8 Noroeste 32 Noroeste 0 -- -- 30
2019-06-05 15:00:00 17.9 8 Noroeste 32 Noroeste 0 -- -- 33
2019-06-05 14:00:00 17.8 11 Noroeste 32 Noroeste 0 -- -- 34
2019-06-05 13:00:00 16.7 11 Noroeste 36 Noroeste 0 -- -- 36
2019-06-05 12:00:00 16 12 Noroeste 37 Noroeste 0 -- -- 36
2019-06-05 11:00:00 14.3 6 Oeste 37 Noroeste 0 -- -- 47
2019-06-05 10:00:00 13.8 9 Noroeste 29 Noroeste 0 -- -- 47
2019-06-05 09:00:00 12.4 8 Noroeste 36 Noroeste 0 -- -- 55
2019-06-05 08:00:00 12.7 6 Noroeste 25 Noroeste 0 -- -- 53
2019-06-05 07:00:00 11.3 2 Oeste 11 Sudoeste 0 -- -- 63
2019-06-05 06:00:00 11.9 0 Calma 8 Sur 0 -- -- 63
2019-06-05 05:00:00 14.1 0 Calma 9 Oeste 0 -- -- 55
2019-06-05 04:00:00 15.4 3 Oeste 17 Sudoeste 0 -- -- 53
2019-06-05 03:00:00 15.9 3 Sudoeste 12 Sur 0 -- -- 64
2019-06-05 02:00:00 16.7 2 Oeste 7 Sudoeste 0 -- -- 59
2019-06-05 01:00:00 16.8 0 Calma 6 Sudoeste 0 -- -- 59
2019-06-05 00:00:00 16.5 0 Calma 2 Sur 0 -- -- 62
2019-06-04 23:00:00 17.3 0 Calma 5 Oeste 0 -- -- 61
2019-06-04 22:00:00 18.5 3 Noroeste 14 Sudoeste 0 -- -- 60
2019-06-04 21:00:00 22.6 3 Sudoeste 21 Sudoeste 0 -- -- 41
2019-06-04 20:00:00 24.4 4 Oeste 24 Sudoeste 0 -- -- 36
2019-06-04 19:00:00 25.5 6 Oeste 22 Noroeste 0 -- -- 32
2019-06-04 18:00:00 26.3 5 Oeste 34 Sudoeste 0 -- -- 27
2019-06-04 17:00:00 26.3 8 Sudoeste 35 Sur 0 -- -- 29
2019-06-04 16:00:00 25.8 6 Sudoeste 36 Sudoeste 0 -- -- 33
2019-06-04 15:00:00 25.9 9 Sudoeste 29 Sur 0 -- -- 32
2019-06-04 14:00:00 26.1 8 Sudoeste 27 Sur 0 -- -- 31
2019-06-04 13:00:00 25.9 8 Sudoeste 30 Sur 0 -- -- 30
2019-06-04 12:00:00 24.6 6 Sudoeste 26 Sudoeste 0 -- -- 37
2019-06-04 11:00:00 22.7 6 Sudoeste 26 Sudoeste 0 -- -- 44
2019-06-04 10:00:00 21.6 5 Sudoeste 23 Oeste 0 -- -- 52
2019-06-04 09:00:00 19.8 3 Oeste 18 Sudoeste 0 -- -- 60
2019-06-04 08:00:00 17.7 2 Oeste 8 Sur 0 -- -- 62
2019-06-04 07:00:00 17.8 3 Sudoeste 13 Sur 0 -- -- 58
2019-06-04 06:00:00 17.1 3 Sur 10 Sur 0 -- -- 51
2019-06-04 05:00:00 15.4 0 Calma 4 Sudoeste 0 -- -- 46
2019-06-04 04:00:00 17 0 Calma 3 Sur 0 -- -- 38
2019-06-04 03:00:00 17.5 0 Calma 3 Sur 0 -- -- 35
2019-06-04 02:00:00 16.9 0 Calma 4 Sudoeste 0 -- -- 37
2019-06-04 01:00:00 18.1 0 Calma 4 Sudoeste 0 -- -- 34
2019-06-04 00:00:00 18.7 0 Calma 4 Noroeste 0 -- -- 33
2019-06-03 23:00:00 21.1 0 Calma 3 Noroeste 0 -- -- 29
2019-06-03 22:00:00 25.9 0 Calma 6 Noroeste 0 -- -- 22
2019-06-03 21:00:00 28.8 3 Oeste 19 Sudoeste 0 -- -- 19
2019-06-03 20:00:00 29.9 3 Oeste 14 Sudoeste 0 -- -- 18
2019-06-03 19:00:00 30.6 5 Oeste 22 Sur 0 -- -- 17
2019-06-03 18:00:00 30.8 5 Oeste 30 Sudoeste 0 -- -- 16
2019-06-03 17:00:00 30.7 8 Sudoeste 34 Oeste 0 -- -- 17
2019-06-03 16:00:00 30.3 8 Sudoeste 32 Sudoeste 0 -- -- 18
2019-06-03 15:00:00 30.8 7 Sudoeste 27 Noroeste 0 -- -- 19
2019-06-03 14:00:00 30.6 9 Sudoeste 28 Sur 0 -- -- 19
2019-06-03 13:00:00 28.6 10 Sur 28 Sur 0 -- -- 24
2019-06-03 12:00:00 26.9 5 Sur 10 Este 0 -- -- 29
2019-06-03 11:00:00 24 3 Nordeste 9 Sudeste 0 -- -- 33
2019-06-03 10:00:00 22.7 3 Nordeste 11 Sudeste 0 -- -- 36
2019-06-03 09:00:00 19.4 2 Este 10 Sudeste 0 -- -- 45
2019-06-03 08:00:00 17.1 3 Este 6 Sudeste 0 -- -- 48
2019-06-03 07:00:00 17 3 Sudeste 13 Nordeste 0 -- -- 47
2019-06-03 06:00:00 17.3 3 Nordeste 7 Nordeste 0 -- -- 45
2019-06-03 05:00:00 17.2 2 Nordeste 3 Nordeste 0 -- -- 48
2019-06-03 04:00:00 18.9 0 Calma 6 Este 0 -- -- 43
2019-06-03 03:00:00 19.3 3 Nordeste 6 Nordeste 0 -- -- 43
2019-06-03 02:00:00 21 2 Sudeste 8 Este 0 -- -- 39
2019-06-03 01:00:00 21 0 Calma 4 Sur 0 -- -- 38
2019-06-03 00:00:00 22.7 2 Este 8 Noroeste 0 -- -- 33
2019-06-02 23:00:00 25.5 5 Noroeste 10 Noroeste 0 -- -- 27
2019-06-02 22:00:00 27.6 2 Noroeste 14 Noroeste 0 -- -- 25
2019-06-02 21:00:00 29.6 2 Noroeste 13 Sudoeste 0 -- -- 22
2019-06-02 20:00:00 30.6 3 Oeste 21 Sur 0 -- -- 20
2019-06-02 19:00:00 31.4 7 Sur 20 Sudoeste 0 -- -- 19
2019-06-02 18:00:00 31.9 5 Noroeste 23 Sur 0 -- -- 19
2019-06-02 17:00:00 31.4 4 Sudoeste 22 Sudoeste 0 -- -- 20
2019-06-02 16:00:00 31.2 4 Oeste 19 Sur 0 -- -- 21
2019-06-02 15:00:00 31 9 Sur 24 Sudeste 0 -- -- 23
2019-06-02 14:00:00 29.8 5 Sur 16 Sur 0 -- -- 24
2019-06-02 13:00:00 28.4 5 Sudeste 12 Sudeste 0 -- -- 26
2019-06-02 12:00:00 26.4 6 Sudeste 13 Este 0 -- -- 29
2019-06-02 11:00:00 24.3 4 Este 14 Sudeste 0 -- -- 32
2019-06-02 10:00:00 23.1 6 Sudeste 14 Sudeste 0 -- -- 34
2019-06-02 09:00:00 19.7 4 Este 8 Sudeste 0 -- -- 42
2019-06-02 08:00:00 15.7 2 Este 6 Sudeste 0 -- -- 48
2019-06-02 07:00:00 13.5 0 Calma 4 Sudeste 0 -- -- 55
2019-06-02 06:00:00 15.3 0 Calma 5 Nordeste 0 -- -- 48
2019-06-02 05:00:00 17.1 3 Nordeste 9 Nordeste 0 -- -- 42
2019-06-02 04:00:00 18 2 Este 7 Nordeste 0 -- -- 39
2019-06-02 03:00:00 19.4 0 Calma 10 Sudoeste 0 -- -- 35
2019-06-02 02:00:00 23 7 Sur 13 Sur 0 -- -- 27
2019-06-02 01:00:00 20.7 5 Sur 11 Sur 0 -- -- 29
2019-06-02 00:00:00 21.2 0 Calma 5 Noroeste 0 -- -- 31
2019-06-01 23:00:00 24.7 0 Calma 8 Sudoeste 0 -- -- 25
2019-06-01 22:00:00 25.8 0 Calma 6 Sudoeste 0 -- -- 25
2019-06-01 21:00:00 29.6 3 Sudoeste 15 Sur 0 -- -- 22
2019-06-01 20:00:00 30.6 7 Sur 15 Sur 0 -- -- 20
2019-06-01 19:00:00 30.9 7 Sudeste 18 Sudeste 0 -- -- 19
2019-06-01 18:00:00 30.5 8 Sur 18 Sur 0 -- -- 20
2019-06-01 17:00:00 30.7 6 Sudeste 20 Sudeste 0 -- -- 21
2019-06-01 16:00:00 30.3 9 Sudeste 18 Sudeste 0 -- -- 21
2019-06-01 15:00:00 29 5 Sur 22 Sur 0 -- -- 23
2019-06-01 14:00:00 28 6 Sur 18 Sur 0 -- -- 26
2019-06-01 13:00:00 26.6 6 Sur 15 Norte 0 -- -- 29
2019-06-01 12:00:00 25.2 7 Sudeste 15 Sudeste 0 -- -- 33
2019-06-01 11:00:00 23.4 4 Sudeste 11 Sudeste 0 -- -- 39
2019-06-01 10:00:00 21.9 4 Este 10 Sudeste 0 -- -- 40
2019-06-01 09:00:00 18.1 4 Este 9 Este 0 -- -- 46
2019-06-01 08:00:00 15 2 Este 6 Nordeste 0 -- -- 51
2019-06-01 07:00:00 13.1 0 Calma 5 Sudeste 0 -- -- 56
2019-06-01 06:00:00 13.6 3 Sudeste 11 Sudeste 0 -- -- 58
2019-06-01 05:00:00 12.9 2 Sudeste 4 Este 0 -- -- 54
2019-06-01 04:00:00 13.8 0 Calma 4 Este 0 -- -- 46
2019-06-01 03:00:00 15.1 0 Calma 3 Norte 0 -- -- 43
2019-06-01 02:00:00 17.5 0 Calma 6 Sudeste 0 -- -- 35
2019-06-01 01:00:00 18.6 3 Noroeste 6 Noroeste 0 -- -- 34
2019-06-01 00:00:00 20.3 0 Calma 5 Sudoeste 0 -- -- 30
2019-05-31 23:00:00 20.2 3 Sur 5 Sur 0 -- -- 30
2019-05-31 22:00:00 23.2 2 Sur 6 Sudeste 0 -- -- 25
2019-05-31 21:00:00 28.4 3 Sudeste 12 Sur 0 -- -- 18
2019-05-31 20:00:00 29.4 3 Sur 13 Sudeste 0 -- -- 18
2019-05-31 19:00:00 29.7 5 Sudeste 19 Sudeste 0 -- -- 18
2019-05-31 18:00:00 29.3 6 Este 16 Sudeste 0 -- -- 20
2019-05-31 17:00:00 29.1 5 Nordeste 19 Nordeste 0 -- -- 21
2019-05-31 16:00:00 28.9 5 Este 15 Sudeste 0 -- -- 22
2019-05-31 15:00:00 28.8 8 Sudeste 17 Sur 0 -- -- 24
2019-05-31 14:00:00 27.7 6 Sur 16 Sudeste 0 -- -- 27
2019-05-31 13:00:00 26.9 7 Sudeste 15 Sur 0 -- -- 28
2019-05-31 12:00:00 25.2 4 Sur 14 Sudoeste 0 -- -- 31
2019-05-31 11:00:00 24.1 5 Sudeste 15 Sudeste 0 -- -- 33
2019-05-31 10:00:00 21.7 3 Este 10 Este 0 -- -- 37
2019-05-31 09:00:00 18 4 Este 10 Este 0 -- -- 42
2019-05-31 08:00:00 14.9 3 Este 6 Este 0 -- -- 49
2019-05-31 07:00:00 13.5 2 Sudeste 4 Nordeste 0 -- -- 50
2019-05-31 06:00:00 13.3 0 Calma 5 Nordeste 0 -- -- 50
2019-05-31 05:00:00 14.9 3 Este 8 Nordeste 0 -- -- 45
2019-05-31 04:00:00 15.8 3 Este 9 Nordeste 0 -- -- 42
2019-05-31 03:00:00 17.8 2 Este 21 Nordeste 0 -- -- 36
2019-05-31 02:00:00 19.3 8 Nordeste 17 Nordeste 0 -- -- 31
2019-05-31 01:00:00 20.1 8 Este 19 Nordeste 0 -- -- 29
2019-05-31 00:00:00 20.5 5 Este 16 Este 0 -- -- 28
2019-05-30 23:00:00 22.5 7 Nordeste 14 Nordeste 0 -- -- 26
2019-05-30 22:00:00 24.1 2 Este 11 Sudeste 0 -- -- 23
2019-05-30 21:00:00 27.2 5 Este 15 Nordeste 0 -- -- 20
2019-05-30 20:00:00 28.6 6 Este 16 Este 0 -- -- 20
2019-05-30 19:00:00 28.6 5 Este 17 Este 0 -- -- 19
2019-05-30 18:00:00 28.7 10 Sudeste 22 Sudeste 0 -- -- 19
2019-05-30 17:00:00 28.3 8 Sudeste 21 Sudeste 0 -- -- 21
2019-05-30 16:00:00 28.2 9 Este 22 Sudeste 0 -- -- 22
2019-05-30 15:00:00 27.9 8 Sudeste 24 Sudeste 0 -- -- 23
2019-05-30 14:00:00 26.5 8 Este 18 Sur 0 -- -- 26
2019-05-30 13:00:00 25.2 7 Sudeste 21 Sudeste 0 -- -- 29
2019-05-30 12:00:00 23 8 Sudeste 22 Sudeste 0 -- -- 34
2019-05-30 11:00:00 20.6 4 Sudeste 12 Sudeste 0 -- -- 38
2019-05-30 10:00:00 18 3 Este 11 Este 0 -- -- 45
2019-05-30 09:00:00 15.3 6 Nordeste 14 Nordeste 0 -- -- 50
2019-05-30 08:00:00 12.1 3 Este 8 Nordeste 0 -- -- 60
2019-05-30 07:00:00 9.7 0 Calma 8 Este 0 -- -- 66
2019-05-30 06:00:00 10.4 2 Este 7 Este 0 -- -- 63
2019-05-30 05:00:00 11.1 3 Sudeste 9 Norte 0 -- -- 60
2019-05-30 04:00:00 11.8 4 Nordeste 9 Nordeste 0 -- -- 59
2019-05-30 03:00:00 13 3 Este 9 Este 0 -- -- 53
2019-05-30 02:00:00 13.4 4 Este 11 Este 0 -- -- 52
2019-05-30 01:00:00 15.1 4 Este 12 Este 0 -- -- 49
2019-05-30 00:00:00 17.4 4 Este 17 Nordeste 0 -- -- 45
2019-05-29 23:00:00 19.5 8 Nordeste 23 Nordeste 0 -- -- 41
2019-05-29 22:00:00 21.1 6 Nordeste 23 Norte 0 -- -- 36
2019-05-29 21:00:00 23.1 12 Nordeste 25 Norte 0 -- -- 31
2019-05-29 20:00:00 24.7 9 Nordeste 24 Nordeste 0 -- -- 28
2019-05-29 19:00:00 25.5 9 Nordeste 25 Este 0 -- -- 25
2019-05-29 18:00:00 25.3 13 Norte 28 Nordeste 0 -- -- 24
2019-05-29 17:00:00 24.8 6 Nordeste 21 Nordeste 0 -- -- 27
2019-05-29 16:00:00 23.7 5 Sudeste 15 Sudeste 0 -- -- 31
2019-05-29 15:00:00 23.2 6 Nordeste 20 Sudeste 0 -- -- 32
2019-05-29 14:00:00 21.7 6 Este 18 Sudeste 0 -- -- 35
2019-05-29 13:00:00 20.2 6 Este 18 Sudeste 0 -- -- 36
2019-05-29 12:00:00 18.2 6 Sudeste 18 Sudeste 0 -- -- 39
2019-05-29 11:00:00 15.6 6 Nordeste 18 Nordeste 0 -- -- 43
2019-05-29 10:00:00 14.2 6 Este 20 Este 0 -- -- 48
2019-05-29 09:00:00 11.4 6 Este 22 Este 0 -- -- 57
2019-05-29 08:00:00 8.8 6 Este 15 Este 0 -- -- 64
2019-05-29 07:00:00 8 5 Este 15 Nordeste 0 -- -- 65
2019-05-29 06:00:00 8.4 6 Este 18 Nordeste 0 -- -- 65
2019-05-29 05:00:00 8.6 3 Este 11 Este 0 -- -- 64
2019-05-29 04:00:00 9.6 3 Este 16 Nordeste 0 -- -- 61
2019-05-29 03:00:00 10.8 6 Este 20 Este 0 -- -- 58
2019-05-29 02:00:00 11.9 6 Este 18 Nordeste 0 -- -- 54
2019-05-29 01:00:00 14.1 8 Nordeste 21 Este 0 -- -- 48
2019-05-29 00:00:00 15.1 8 Nordeste 30 Nordeste 0 -- -- 49
2019-05-28 23:00:00 15.1 12 Nordeste 30 Este 0 -- -- 50
2019-05-28 22:00:00 14.5 6 Este 30 Nordeste 0 -- -- 66
2019-05-28 21:00:00 19.4 12 Nordeste 36 Nordeste 0 -- -- 32
2019-05-28 20:00:00 21.2 14 Nordeste 36 Nordeste 0 -- -- 29
2019-05-28 19:00:00 23.1 14 Nordeste 36 Nordeste 0 -- -- 28
2019-05-28 18:00:00 24.3 15 Norte 33 Norte 0 -- -- 25
2019-05-28 17:00:00 24.3 11 Este 29 Nordeste 0 -- -- 22
2019-05-28 16:00:00 24.1 10 Nordeste 25 Norte 0 -- -- 21
2019-05-28 15:00:00 24.2 12 Nordeste 22 Norte 0 -- -- 23
2019-05-28 14:00:00 23.6 5 Este 18 Sudeste 0 -- -- 25
2019-05-28 13:00:00 22 6 Este 17 Sudeste 0 -- -- 32
2019-05-28 12:00:00 19.2 4 Sudoeste 15 Sudeste 0 -- -- 41
2019-05-28 11:00:00 17.5 4 Este 14 Sudeste 0 -- -- 45
2019-05-28 10:00:00 16 7 Este 20 Sudeste 0 -- -- 50
2019-05-28 09:00:00 13.1 3 Este 9 Sudeste 0 -- -- 63
2019-05-28 08:00:00 11 2 Sudeste 5 Este 0 -- -- 69
2019-05-28 07:00:00 10.2 0 Calma 5 Este 0 -- -- 73
2019-05-28 06:00:00 10.8 3 Este 13 Este 0 -- -- 71
2019-05-28 05:00:00 12 6 Nordeste 14 Nordeste 0 -- -- 69
2019-05-28 04:00:00 12.6 2 Este 12 Sudeste 0 -- -- 67
2019-05-28 03:00:00 13.8 5 Este 16 Este 0 -- -- 63
2019-05-28 02:00:00 15.1 5 Este 19 Este 0 -- -- 57
2019-05-28 01:00:00 16.8 6 Este 21 Este 0 -- -- 52
2019-05-28 00:00:00 18.4 7 Nordeste 16 Nordeste 0 -- -- 47
2019-05-27 23:00:00 19.7 4 Nordeste 16 Nordeste 0 -- -- 43
2019-05-27 22:00:00 21.1 6 Nordeste 21 Nordeste 0 -- -- 40
2019-05-27 21:00:00 23.3 10 Nordeste 24 Nordeste 0 -- -- 36
2019-05-27 20:00:00 24.9 8 Norte 22 Nordeste 0 -- -- 32
2019-05-27 19:00:00 25.7 11 Nordeste 26 Nordeste 0 -- -- 30
2019-05-27 18:00:00 26.1 9 Norte 27 Noroeste 0 -- -- 30
2019-05-27 17:00:00 25.3 10 Norte 26 Norte 0 -- -- 31
2019-05-27 16:00:00 26.4 7 Norte 22 Norte 0 -- -- 29
2019-05-27 15:00:00 26.5 8 Este 20 Nordeste 0 -- -- 30
2019-05-27 14:00:00 25.7 8 Sur 14 Sudeste 0 -- -- 33
2019-05-27 13:00:00 24.2 9 Sur 18 Sur 0 -- -- 37
2019-05-27 12:00:00 23.4 3 Sudoeste 12 Sur 0 -- -- 38
2019-05-27 11:00:00 21.2 3 Sudeste 10 Sur 0 -- -- 43
2019-05-27 10:00:00 18.9 3 Nordeste 7 Este 0 -- -- 50
2019-05-27 09:00:00 15.6 3 Sudeste 7 Este 0 -- -- 59
2019-05-27 08:00:00 12.3 2 Sudeste 7 Nordeste 0 -- -- 68
2019-05-27 07:00:00 12 2 Este 6 Nordeste 0 -- -- 69
2019-05-27 06:00:00 10.8 0 Calma 3 Norte 0 -- -- 73
2019-05-27 05:00:00 11.5 0 Calma 6 Noroeste 0 -- -- 70
2019-05-27 04:00:00 12.8 0 Calma 6 Nordeste 0 -- -- 65
2019-05-27 03:00:00 13.6 2 Nordeste 11 Este 0 -- -- 62
2019-05-27 02:00:00 14.8 4 Este 14 Nordeste 0 -- -- 58
2019-05-27 01:00:00 15.4 3 Este 8 Este 0 -- -- 51
2019-05-27 00:00:00 17.2 4 Este 7 Este 0 -- -- 44
2019-05-26 23:00:00 19.9 3 Este 17 Norte 0 -- -- 36
2019-05-26 22:00:00 21.6 6 Norte 22 Nordeste 0 -- -- 32
2019-05-26 21:00:00 23.6 9 Norte 23 Nordeste 0 -- -- 31
2019-05-26 20:00:00 24.7 12 Norte 24 Nordeste 0 -- -- 32
2019-05-26 19:00:00 25.6 12 Nordeste 27 Nordeste 0 -- -- 30
2019-05-26 18:00:00 25.2 12 Nordeste 29 Nordeste 0 -- -- 30
2019-05-26 17:00:00 25.1 12 Nordeste 28 Nordeste 0 -- -- 29
2019-05-26 16:00:00 24.8 11 Nordeste 25 Este 0 -- -- 28
2019-05-26 15:00:00 23.4 5 Nordeste 23 Nordeste 0 -- -- 30
2019-05-26 14:00:00 22.5 4 Sudeste 15 Este 0 -- -- 33
2019-05-26 13:00:00 20.4 5 Sudeste 12 Sur 0 -- -- 36
2019-05-26 12:00:00 18.2 4 Este 14 Sudeste 0 -- -- 40
2019-05-26 11:00:00 16.2 5 Sudeste 10 Nordeste 0 -- -- 48
2019-05-26 10:00:00 14.5 4 Este 13 Este 0 -- -- 54
2019-05-26 09:00:00 11.8 6 Sudeste 16 Sudeste 0 -- -- 64
2019-05-26 08:00:00 8.6 2 Este 4 Sudeste 0 -- -- 78
2019-05-26 07:00:00 7.4 0 Calma 6 Este 0 -- -- 81
2019-05-26 06:00:00 7.3 0 Calma 4 Este 0 -- -- 81
2019-05-26 05:00:00 9.1 2 Norte 10 Este 0 -- -- 74
2019-05-26 04:00:00 9.3 4 Este 13 Sudeste 0 -- -- 72
2019-05-26 03:00:00 10.7 4 Este 18 Este 0 -- -- 68
2019-05-26 02:00:00 11.9 6 Este 20 Este 0 -- -- 64
2019-05-26 01:00:00 13.4 7 Este 19 Este 0 -- -- 59
2019-05-26 00:00:00 15.4 5 Este 19 Nordeste 0 -- -- 52
2019-05-25 23:00:00 17 3 Nordeste 25 Este 0 -- -- 45
2019-05-25 22:00:00 18.6 7 Nordeste 18 Nordeste 0 -- -- 42
2019-05-25 21:00:00 20.9 12 Nordeste 23 Nordeste 0 -- -- 36
2019-05-25 20:00:00 22.7 8 Nordeste 25 Norte 0 -- -- 31
2019-05-25 19:00:00 23.1 7 Nordeste 21 Nordeste 0 -- -- 31
2019-05-25 18:00:00 22.7 8 Norte 31 Este 0 -- -- 31
2019-05-25 17:00:00 22.6 9 Norte 26 Norte 0 -- -- 31
2019-05-25 16:00:00 22.2 7 Nordeste 28 Norte 0 -- -- 34
2019-05-25 15:00:00 21.9 9 Este 35 Norte 0 -- -- 34
2019-05-25 14:00:00 21.4 9 Este 24 Nordeste 0 -- -- 37
2019-05-25 13:00:00 20.2 7 Este 24 Nordeste 0 -- -- 39
2019-05-25 12:00:00 19.1 8 Nordeste 29 Este 0 -- -- 39
2019-05-25 11:00:00 16.6 6 Nordeste 21 Norte 0 -- -- 46
2019-05-25 10:00:00 15.4 5 Norte 13 Norte 0 -- -- 50
2019-05-25 09:00:00 12.1 0 Calma 4 Noroeste 0 -- -- 65
2019-05-25 08:00:00 9.3 0 Calma 4 Noroeste 0 -- -- 75
2019-05-25 07:00:00 7.8 0 Calma 5 Noroeste 0 -- -- 78
2019-05-25 06:00:00 8.5 0 Calma 7 Nordeste 0 -- -- 76
2019-05-25 05:00:00 8.4 2 Este 12 Este 0 -- -- 74
2019-05-25 04:00:00 8.7 2 Este 7 Este 0 -- -- 73
2019-05-25 03:00:00 9.9 2 Este 5 Nordeste 0 -- -- 68
2019-05-25 02:00:00 11 2 Nordeste 9 Nordeste 0 -- -- 64
2019-05-25 01:00:00 12.4 4 Nordeste 14 Nordeste 0 -- -- 59
2019-05-25 00:00:00 13.9 5 Este 23 Norte 0 -- -- 52
2019-05-24 23:00:00 15 8 Nordeste 25 Norte 0 -- -- 47
2019-05-24 22:00:00 16.3 10 Nordeste 27 Nordeste 0 -- -- 44
2019-05-24 21:00:00 18.1 12 Norte 33 Norte 0 -- -- 40
2019-05-24 20:00:00 20.3 14 Norte 30 Norte 0 -- -- 35
2019-05-24 19:00:00 21.7 14 Norte 33 Nordeste 0 -- -- 31
2019-05-24 18:00:00 22.3 15 Nordeste 35 Nordeste 0 -- -- 29
2019-05-24 17:00:00 22.6 17 Nordeste 33 Nordeste 0 -- -- 31
2019-05-24 16:00:00 22.6 15 Nordeste 31 Nordeste 0 -- -- 32
2019-05-24 15:00:00 22.3 11 Este 31 Nordeste 0 -- -- 36
2019-05-24 14:00:00 22.4 13 Nordeste 28 Nordeste 0 -- -- 39
2019-05-24 13:00:00 22 10 Nordeste 28 Nordeste 0 -- -- 42
2019-05-24 12:00:00 21 11 Este 32 Este 0 -- -- 47
2019-05-24 11:00:00 19.8 10 Nordeste 27 Nordeste 0 -- -- 52
2019-05-24 10:00:00 18 9 Este 31 Nordeste 0 -- -- 59
2019-05-24 09:00:00 16.4 9 Este 27 Nordeste 0 -- -- 65
2019-05-24 08:00:00 14.3 3 Este 9 Este 0 -- -- 71
2019-05-24 07:00:00 14.6 4 Sudeste 7 Sudeste 0 -- -- 67
2019-05-24 06:00:00 15 3 Sudoeste 5 Sudeste 0 -- -- 68
2019-05-24 05:00:00 16.2 4 Sudeste 13 Sudeste 0 -- -- 62
2019-05-24 04:00:00 15.9 7 Sudeste 13 Sudeste 0 -- -- 61
2019-05-24 03:00:00 16.6 3 Este 10 Sudeste 0 -- -- 47
2019-05-24 02:00:00 15.7 0 Calma 8 Sudeste 0 -- -- 47
2019-05-24 01:00:00 17.2 2 Sudeste 6 Noroeste 0 -- -- 42
2019-05-24 00:00:00 20.8 5 Noroeste 18 Noroeste 0 -- -- 33
2019-05-23 23:00:00 21.6 5 Noroeste 13 Noroeste 0 -- -- 33
2019-05-23 22:00:00 23.1 2 Oeste 10 Noroeste 0 -- -- 27
2019-05-23 21:00:00 24.5 3 Oeste 13 Sudoeste 0 -- -- 25
2019-05-23 20:00:00 26.2 4 Sudoeste 17 Sudoeste 0 -- -- 23
2019-05-23 19:00:00 26.5 3 Oeste 25 Sur 0 -- -- 23
2019-05-23 18:00:00 26.5 6 Sudoeste 22 Sur 0 -- -- 25
2019-05-23 17:00:00 26.3 6 Sudoeste 22 Sudoeste 0 -- -- 26
2019-05-23 16:00:00 26.4 6 Sudoeste 24 Sur 0 -- -- 29
2019-05-23 15:00:00 25.9 4 Oeste 28 Sur 0 -- -- 31
2019-05-23 14:00:00 24.7 5 Oeste 16 Sudeste 0 -- -- 34
2019-05-23 13:00:00 23 6 Sur 16 Sur 0 -- -- 36
2019-05-23 12:00:00 20.4 0 Calma 9 Sudeste 0 -- -- 53
2019-05-23 11:00:00 17.5 3 Sudeste 10 Sur 0 -- -- 65
2019-05-23 10:00:00 19.5 3 Este 9 Nordeste 0 -- -- 42
2019-05-23 09:00:00 17.3 2 Este 10 Sudeste 0 -- -- 47
2019-05-23 08:00:00 14.7 0 Calma 9 Norte 0 -- -- 54
2019-05-23 07:00:00 13.3 4 Norte 8 Norte 0 -- -- 56
2019-05-23 06:00:00 12.2 0 Calma 4 Sudeste 0 -- -- 61
2019-05-23 05:00:00 13.4 0 Calma 3 Nordeste 0 -- -- 57
2019-05-23 04:00:00 15.2 2 Este 9 Este 0 -- -- 48
2019-05-23 03:00:00 13.8 0 Calma 4 Nordeste 0 -- -- 57
2019-05-23 02:00:00 16 2 Este 9 Nordeste 0 -- -- 50
2019-05-23 01:00:00 18.3 5 Norte 8 Norte 0 -- -- 43
2019-05-23 00:00:00 17 5 Noroeste 6 Noroeste 0 -- -- 47
2019-05-22 23:00:00 17.8 0 Calma 3 Noroeste 0 -- -- 44
2019-05-22 22:00:00 21.8 0 Calma 5 Sur 0 -- -- 34
2019-05-22 21:00:00 24.6 3 Sudoeste 12 Sur 0 -- -- 27
2019-05-22 20:00:00 25.3 4 Sur 13 Sur 0 -- -- 27
2019-05-22 19:00:00 25.7 4 Sur 14 Noroeste 0 -- -- 26
2019-05-22 18:00:00 26 5 Sur 18 Noroeste 0 -- -- 26
2019-05-22 17:00:00 25.7 6 Norte 20 Noroeste 0 -- -- 26
2019-05-22 16:00:00 25.5 3 Sudoeste 13 Sudoeste 0 -- -- 27
2019-05-22 15:00:00 25.2 3 Noroeste 14 Sur 0 -- -- 27
2019-05-22 14:00:00 24.9 5 Sur 15 Sudeste 0 -- -- 29
2019-05-22 13:00:00 23.6 4 Este 11 Este 0 -- -- 31
2019-05-22 12:00:00 21.7 3 Sudoeste 13 Sudeste 0 -- -- 39
2019-05-22 11:00:00 20.2 5 Sudeste 13 Sudeste 0 -- -- 44
2019-05-22 10:00:00 18.1 4 Este 13 Sudeste 0 -- -- 49
2019-05-22 09:00:00 14.4 4 Este 13 Nordeste 0 -- -- 56
2019-05-22 08:00:00 10.6 2 Sudeste 4 Este 0 -- -- 65
2019-05-22 07:00:00 10 2 Este 6 Nordeste 0 -- -- 63
2019-05-22 06:00:00 11.4 0 Calma 8 Este 0 -- -- 58
2019-05-22 05:00:00 12.3 2 Este 12 Nordeste 0 -- -- 55
2019-05-22 04:00:00 13.3 5 Nordeste 16 Este 0 -- -- 52
2019-05-22 03:00:00 13.9 7 Nordeste 18 Nordeste 0 -- -- 50
2019-05-22 02:00:00 14.7 7 Nordeste 25 Este 0 -- -- 48
2019-05-22 01:00:00 14.4 5 Nordeste 15 Nordeste 0 -- -- 49
2019-05-22 00:00:00 13.4 2 Nordeste 3 Nordeste 0 -- -- 52
2019-05-21 23:00:00 15.2 0 Calma 3 Este 0 -- -- 46
2019-05-21 22:00:00 18.6 0 Calma 6 Nordeste 0 -- -- 38
2019-05-21 21:00:00 21.5 4 Nordeste 12 Nordeste 0 -- -- 31
2019-05-21 20:00:00 21.7 7 Norte 14 Nordeste 0 -- -- 30
2019-05-21 19:00:00 21.8 6 Nordeste 15 Nordeste 0 -- -- 30
2019-05-21 18:00:00 22.2 6 Noroeste 12 Nordeste 0 -- -- 28
2019-05-21 17:00:00 22.7 4 Sudeste 13 Sur 0 -- -- 27
2019-05-21 16:00:00 22.2 5 Este 17 Nordeste 0 -- -- 29
2019-05-21 15:00:00 23.4 5 Sudeste 18 Sudeste 0 -- -- 28
2019-05-21 14:00:00 22.3 5 Norte 20 Sudeste 0 -- -- 29
2019-05-21 13:00:00 21.2 6 Nordeste 18 Sudeste 0 -- -- 31
2019-05-21 12:00:00 19.3 5 Este 18 Sudeste -- -- -- 40
2019-05-21 11:00:00 17.3 7 Nordeste 21 Sudeste 0 -- -- 45
2019-05-21 10:00:00 15.4 8 Este 21 Nordeste 0 -- -- 49
2019-05-21 09:00:00 13.4 5 Este 17 Nordeste 0 -- -- 54
2019-05-21 08:00:00 12.5 4 Nordeste 16 Nordeste 0 -- -- 57
2019-05-21 07:00:00 12.4 5 Este 18 Nordeste 0 -- -- 57
2019-05-21 06:00:00 12.2 9 Nordeste 18 Nordeste 0 -- -- 58
2019-05-21 05:00:00 11.9 6 Nordeste 15 Nordeste 0 -- -- 58
2019-05-21 04:00:00 11.9 4 Este 13 Este 0 -- -- 56
2019-05-21 03:00:00 12.1 3 Este 14 Este 0 -- -- 48
2019-05-21 02:00:00 12 2 Norte 5 Noroeste 0 -- -- 47
2019-05-21 01:00:00 13.6 3 Norte 6 Norte 0 -- -- 43
2019-05-21 00:00:00 14.8 0 Calma 9 Norte 0 -- -- 39